sensor_id;sensor_type;location;lat;lon;timestamp;P1;durP1;ratioP1;P2;durP2;ratioP2
24650;SDS011;12783;48.824;8.662;2022-07-06T00:00:07;2.72;;;1.40;;
24650;SDS011;12783;48.824;8.662;2022-07-06T00:02:36;3.83;;;1.58;;
24650;SDS011;12783;48.824;8.662;2022-07-06T00:05:03;6.28;;;1.70;;
24650;SDS011;12783;48.824;8.662;2022-07-06T00:07:30;2.95;;;1.42;;
24650;SDS011;12783;48.824;8.662;2022-07-06T00:09:57;8.00;;;1.55;;
24650;SDS011;12783;48.824;8.662;2022-07-06T00:12:24;3.97;;;1.50;;
24650;SDS011;12783;48.824;8.662;2022-07-06T00:14:51;3.03;;;1.80;;
24650;SDS011;12783;48.824;8.662;2022-07-06T00:17:18;3.90;;;1.85;;
24650;SDS011;12783;48.824;8.662;2022-07-06T00:19:45;3.08;;;1.73;;
24650;SDS011;12783;48.824;8.662;2022-07-06T00:22:12;4.88;;;1.60;;
24650;SDS011;12783;48.824;8.662;2022-07-06T00:24:38;7.07;;;1.73;;
24650;SDS011;12783;48.824;8.662;2022-07-06T00:27:05;7.43;;;1.70;;
24650;SDS011;12783;48.824;8.662;2022-07-06T00:29:32;3.63;;;1.50;;
24650;SDS011;12783;48.824;8.662;2022-07-06T00:31:59;2.55;;;1.58;;
24650;SDS011;12783;48.824;8.662;2022-07-06T00:34:26;3.20;;;1.60;;
24650;SDS011;12783;48.824;8.662;2022-07-06T00:36:53;7.00;;;2.33;;
24650;SDS011;12783;48.824;8.662;2022-07-06T00:39:20;5.28;;;1.60;;
24650;SDS011;12783;48.824;8.662;2022-07-06T00:41:48;3.38;;;1.40;;
24650;SDS011;12783;48.824;8.662;2022-07-06T00:44:14;2.75;;;1.50;;
24650;SDS011;12783;48.824;8.662;2022-07-06T00:46:41;3.25;;;1.30;;
24650;SDS011;12783;48.824;8.662;2022-07-06T00:49:08;4.35;;;1.80;;
24650;SDS011;12783;48.824;8.662;2022-07-06T00:51:55;5.53;;;2.00;;
24650;SDS011;12783;48.824;8.662;2022-07-06T00:54:24;12.25;;;1.70;;
24650;SDS011;12783;48.824;8.662;2022-07-06T00:56:52;5.65;;;2.17;;
24650;SDS011;12783;48.824;8.662;2022-07-06T00:59:19;3.60;;;1.30;;
24650;SDS011;12783;48.824;8.662;2022-07-06T01:01:46;5.15;;;1.90;;
24650;SDS011;12783;48.824;8.662;2022-07-06T01:04:13;3.22;;;1.80;;
24650;SDS011;12783;48.824;8.662;2022-07-06T01:06:40;4.30;;;1.85;;
24650;SDS011;12783;48.824;8.662;2022-07-06T01:09:07;4.10;;;2.00;;
24650;SDS011;12783;48.824;8.662;2022-07-06T01:11:35;3.38;;;1.90;;
24650;SDS011;12783;48.824;8.662;2022-07-06T01:14:02;6.18;;;2.22;;
24650;SDS011;12783;48.824;8.662;2022-07-06T01:16:28;5.05;;;2.33;;
24650;SDS011;12783;48.824;8.662;2022-07-06T01:18:56;4.70;;;1.70;;
24650;SDS011;12783;48.824;8.662;2022-07-06T01:21:23;4.53;;;2.10;;
24650;SDS011;12783;48.824;8.662;2022-07-06T01:23:50;4.13;;;2.17;;
24650;SDS011;12783;48.824;8.662;2022-07-06T01:26:18;5.78;;;2.20;;
24650;SDS011;12783;48.824;8.662;2022-07-06T01:28:47;8.00;;;2.25;;
24650;SDS011;12783;48.824;8.662;2022-07-06T01:33:49;3.40;;;2.00;;
24650;SDS011;12783;48.824;8.662;2022-07-06T01:36:19;3.50;;;2.00;;
24650;SDS011;12783;48.824;8.662;2022-07-06T01:38:48;3.03;;;1.75;;
24650;SDS011;12783;48.824;8.662;2022-07-06T01:41:20;5.15;;;2.17;;
24650;SDS011;12783;48.824;8.662;2022-07-06T01:43:47;3.80;;;2.20;;
24650;SDS011;12783;48.824;8.662;2022-07-06T01:46:15;2.90;;;2.13;;
24650;SDS011;12783;48.824;8.662;2022-07-06T01:48:42;2.63;;;1.98;;
24650;SDS011;12783;48.824;8.662;2022-07-06T01:51:09;4.28;;;2.20;;
24650;SDS011;12783;48.824;8.662;2022-07-06T01:53:38;4.45;;;2.17;;
24650;SDS011;12783;48.824;8.662;2022-07-06T01:56:05;4.18;;;2.20;;
24650;SDS011;12783;48.824;8.662;2022-07-06T01:58:32;4.07;;;2.25;;
24650;SDS011;12783;48.824;8.662;2022-07-06T02:00:59;3.38;;;1.90;;
24650;SDS011;12783;48.824;8.662;2022-07-06T02:03:26;5.47;;;2.17;;
24650;SDS011;12783;48.824;8.662;2022-07-06T02:05:53;4.45;;;2.33;;
24650;SDS011;12783;48.824;8.662;2022-07-06T02:08:20;13.13;;;2.40;;
24650;SDS011;12783;48.824;8.662;2022-07-06T02:10:47;6.00;;;2.80;;
24650;SDS011;12783;48.824;8.662;2022-07-06T02:13:14;5.10;;;2.50;;
24650;SDS011;12783;48.824;8.662;2022-07-06T02:15:41;7.80;;;2.15;;
24650;SDS011;12783;48.824;8.662;2022-07-06T02:18:08;2.75;;;2.30;;
24650;SDS011;12783;48.824;8.662;2022-07-06T02:20:35;5.05;;;2.63;;
24650;SDS011;12783;48.824;8.662;2022-07-06T02:23:02;4.88;;;2.50;;
24650;SDS011;12783;48.824;8.662;2022-07-06T02:25:29;3.97;;;2.35;;
24650;SDS011;12783;48.824;8.662;2022-07-06T02:27:56;11.50;;;3.33;;
24650;SDS011;12783;48.824;8.662;2022-07-06T02:30:23;7.22;;;3.05;;
24650;SDS011;12783;48.824;8.662;2022-07-06T02:32:50;6.57;;;2.80;;
24650;SDS011;12783;48.824;8.662;2022-07-06T02:35:17;5.70;;;3.63;;
24650;SDS011;12783;48.824;8.662;2022-07-06T02:37:43;7.40;;;3.63;;
24650;SDS011;12783;48.824;8.662;2022-07-06T02:40:10;8.02;;;3.10;;
24650;SDS011;12783;48.824;8.662;2022-07-06T02:42:38;7.60;;;3.33;;
24650;SDS011;12783;48.824;8.662;2022-07-06T02:45:05;6.32;;;3.60;;
24650;SDS011;12783;48.824;8.662;2022-07-06T02:47:32;9.25;;;3.75;;
24650;SDS011;12783;48.824;8.662;2022-07-06T02:49:59;10.85;;;4.20;;
24650;SDS011;12783;48.824;8.662;2022-07-06T02:52:26;8.68;;;4.05;;
24650;SDS011;12783;48.824;8.662;2022-07-06T02:54:53;4.72;;;3.85;;
24650;SDS011;12783;48.824;8.662;2022-07-06T02:57:20;4.80;;;3.95;;
24650;SDS011;12783;48.824;8.662;2022-07-06T02:59:46;5.90;;;4.13;;
24650;SDS011;12783;48.824;8.662;2022-07-06T03:02:18;6.95;;;4.32;;
24650;SDS011;12783;48.824;8.662;2022-07-06T03:04:46;11.23;;;4.78;;
24650;SDS011;12783;48.824;8.662;2022-07-06T03:07:12;6.50;;;3.92;;
24650;SDS011;12783;48.824;8.662;2022-07-06T03:09:39;10.07;;;4.50;;
24650;SDS011;12783;48.824;8.662;2022-07-06T03:12:07;6.57;;;4.53;;
24650;SDS011;12783;48.824;8.662;2022-07-06T03:14:34;6.90;;;4.03;;
24650;SDS011;12783;48.824;8.662;2022-07-06T03:17:01;10.50;;;4.32;;
24650;SDS011;12783;48.824;8.662;2022-07-06T03:19:28;5.43;;;4.50;;
24650;SDS011;12783;48.824;8.662;2022-07-06T03:21:55;7.78;;;4.07;;
24650;SDS011;12783;48.824;8.662;2022-07-06T03:24:22;9.98;;;4.35;;
24650;SDS011;12783;48.824;8.662;2022-07-06T03:26:49;15.27;;;5.72;;
24650;SDS011;12783;48.824;8.662;2022-07-06T03:29:16;9.40;;;4.78;;
24650;SDS011;12783;48.824;8.662;2022-07-06T03:31:43;11.80;;;5.05;;
24650;SDS011;12783;48.824;8.662;2022-07-06T03:34:10;6.82;;;4.68;;
24650;SDS011;12783;48.824;8.662;2022-07-06T03:36:37;6.05;;;4.45;;
24650;SDS011;12783;48.824;8.662;2022-07-06T03:39:05;10.73;;;4.45;;
24650;SDS011;12783;48.824;8.662;2022-07-06T03:41:32;7.20;;;4.70;;
24650;SDS011;12783;48.824;8.662;2022-07-06T03:43:59;11.93;;;4.50;;
24650;SDS011;12783;48.824;8.662;2022-07-06T03:46:27;7.60;;;5.07;;
24650;SDS011;12783;48.824;8.662;2022-07-06T03:48:55;7.30;;;4.85;;
24650;SDS011;12783;48.824;8.662;2022-07-06T03:51:21;5.57;;;4.28;;
24650;SDS011;12783;48.824;8.662;2022-07-06T03:53:49;7.65;;;4.78;;
24650;SDS011;12783;48.824;8.662;2022-07-06T03:56:16;8.25;;;4.75;;
24650;SDS011;12783;48.824;8.662;2022-07-06T03:58:56;5.93;;;4.28;;
24650;SDS011;12783;48.824;8.662;2022-07-06T04:01:24;8.77;;;4.97;;
24650;SDS011;12783;48.824;8.662;2022-07-06T04:03:52;7.88;;;4.93;;
24650;SDS011;12783;48.824;8.662;2022-07-06T04:06:19;6.43;;;4.47;;
24650;SDS011;12783;48.824;8.662;2022-07-06T04:08:46;12.35;;;4.63;;
24650;SDS011;12783;48.824;8.662;2022-07-06T04:11:13;7.18;;;4.88;;
24650;SDS011;12783;48.824;8.662;2022-07-06T04:13:40;8.93;;;4.82;;
24650;SDS011;12783;48.824;8.662;2022-07-06T04:16:07;10.85;;;5.32;;
24650;SDS011;12783;48.824;8.662;2022-07-06T04:18:34;9.63;;;5.22;;
24650;SDS011;12783;48.824;8.662;2022-07-06T04:21:01;7.05;;;4.70;;
24650;SDS011;12783;48.824;8.662;2022-07-06T04:23:29;8.75;;;4.57;;
24650;SDS011;12783;48.824;8.662;2022-07-06T04:25:56;8.40;;;4.82;;
24650;SDS011;12783;48.824;8.662;2022-07-06T04:28:23;7.88;;;4.43;;
24650;SDS011;12783;48.824;8.662;2022-07-06T04:30:50;5.97;;;5.22;;
24650;SDS011;12783;48.824;8.662;2022-07-06T04:33:17;9.55;;;5.78;;
24650;SDS011;12783;48.824;8.662;2022-07-06T04:35:44;10.00;;;5.35;;
24650;SDS011;12783;48.824;8.662;2022-07-06T04:38:11;6.43;;;4.95;;
24650;SDS011;12783;48.824;8.662;2022-07-06T04:40:38;6.80;;;4.90;;
24650;SDS011;12783;48.824;8.662;2022-07-06T04:43:05;11.18;;;5.63;;
24650;SDS011;12783;48.824;8.662;2022-07-06T04:45:32;10.23;;;5.18;;
24650;SDS011;12783;48.824;8.662;2022-07-06T04:47:59;8.50;;;4.97;;
24650;SDS011;12783;48.824;8.662;2022-07-06T04:50:26;9.30;;;4.80;;
24650;SDS011;12783;48.824;8.662;2022-07-06T04:52:52;7.15;;;5.05;;
24650;SDS011;12783;48.824;8.662;2022-07-06T04:55:19;6.20;;;4.72;;
24650;SDS011;12783;48.824;8.662;2022-07-06T04:57:46;8.50;;;4.82;;
24650;SDS011;12783;48.824;8.662;2022-07-06T05:00:14;8.98;;;5.40;;
24650;SDS011;12783;48.824;8.662;2022-07-06T05:02:41;7.40;;;4.45;;
24650;SDS011;12783;48.824;8.662;2022-07-06T05:05:08;10.18;;;5.38;;
24650;SDS011;12783;48.824;8.662;2022-07-06T05:07:35;12.18;;;5.43;;
24650;SDS011;12783;48.824;8.662;2022-07-06T05:10:08;8.23;;;4.90;;
24650;SDS011;12783;48.824;8.662;2022-07-06T05:12:37;11.88;;;6.15;;
24650;SDS011;12783;48.824;8.662;2022-07-06T05:15:04;8.48;;;4.82;;
24650;SDS011;12783;48.824;8.662;2022-07-06T05:17:32;11.10;;;6.60;;
24650;SDS011;12783;48.824;8.662;2022-07-06T05:19:59;6.55;;;4.57;;
24650;SDS011;12783;48.824;8.662;2022-07-06T05:22:26;6.43;;;4.63;;
24650;SDS011;12783;48.824;8.662;2022-07-06T05:24:53;6.63;;;5.07;;
24650;SDS011;12783;48.824;8.662;2022-07-06T05:27:20;8.07;;;4.97;;
24650;SDS011;12783;48.824;8.662;2022-07-06T05:29:47;14.23;;;5.20;;
24650;SDS011;12783;48.824;8.662;2022-07-06T05:32:14;9.68;;;4.03;;
24650;SDS011;12783;48.824;8.662;2022-07-06T05:34:41;6.70;;;4.20;;
24650;SDS011;12783;48.824;8.662;2022-07-06T05:37:08;12.25;;;4.72;;
24650;SDS011;12783;48.824;8.662;2022-07-06T05:39:34;5.32;;;3.67;;
24650;SDS011;12783;48.824;8.662;2022-07-06T05:42:01;6.38;;;3.63;;
24650;SDS011;12783;48.824;8.662;2022-07-06T05:44:28;10.85;;;4.15;;
24650;SDS011;12783;48.824;8.662;2022-07-06T05:46:55;9.57;;;4.20;;
24650;SDS011;12783;48.824;8.662;2022-07-06T05:49:42;5.82;;;3.88;;
24650;SDS011;12783;48.824;8.662;2022-07-06T05:52:29;6.93;;;4.10;;
24650;SDS011;12783;48.824;8.662;2022-07-06T05:54:56;7.38;;;3.75;;
24650;SDS011;12783;48.824;8.662;2022-07-06T05:57:23;10.15;;;3.53;;
24650;SDS011;12783;48.824;8.662;2022-07-06T05:59:49;6.10;;;3.40;;
24650;SDS011;12783;48.824;8.662;2022-07-06T06:02:16;5.78;;;4.47;;
24650;SDS011;12783;48.824;8.662;2022-07-06T06:04:43;6.50;;;3.60;;
24650;SDS011;12783;48.824;8.662;2022-07-06T06:07:10;5.47;;;3.17;;
24650;SDS011;12783;48.824;8.662;2022-07-06T06:09:37;10.75;;;3.85;;
24650;SDS011;12783;48.824;8.662;2022-07-06T06:12:04;8.38;;;3.60;;
24650;SDS011;12783;48.824;8.662;2022-07-06T06:14:31;6.35;;;3.58;;
24650;SDS011;12783;48.824;8.662;2022-07-06T06:16:58;6.93;;;3.80;;
24650;SDS011;12783;48.824;8.662;2022-07-06T06:19:25;7.15;;;3.70;;
24650;SDS011;12783;48.824;8.662;2022-07-06T06:21:52;8.80;;;3.75;;
24650;SDS011;12783;48.824;8.662;2022-07-06T06:24:19;8.85;;;3.58;;
24650;SDS011;12783;48.824;8.662;2022-07-06T06:26:46;8.23;;;3.72;;
24650;SDS011;12783;48.824;8.662;2022-07-06T06:29:13;7.53;;;3.00;;
24650;SDS011;12783;48.824;8.662;2022-07-06T06:31:40;4.20;;;3.20;;
24650;SDS011;12783;48.824;8.662;2022-07-06T06:34:07;6.85;;;3.83;;
24650;SDS011;12783;48.824;8.662;2022-07-06T06:36:34;9.88;;;3.75;;
24650;SDS011;12783;48.824;8.662;2022-07-06T06:39:01;7.80;;;3.75;;
24650;SDS011;12783;48.824;8.662;2022-07-06T06:41:28;10.68;;;3.78;;
24650;SDS011;12783;48.824;8.662;2022-07-06T06:43:55;4.32;;;3.13;;
24650;SDS011;12783;48.824;8.662;2022-07-06T06:46:22;6.28;;;3.13;;
24650;SDS011;12783;48.824;8.662;2022-07-06T06:48:49;7.78;;;3.20;;
24650;SDS011;12783;48.824;8.662;2022-07-06T06:51:16;6.97;;;3.60;;
24650;SDS011;12783;48.824;8.662;2022-07-06T06:53:42;11.55;;;3.20;;
24650;SDS011;12783;48.824;8.662;2022-07-06T06:56:09;8.27;;;3.47;;
24650;SDS011;12783;48.824;8.662;2022-07-06T06:58:36;7.95;;;3.30;;
24650;SDS011;12783;48.824;8.662;2022-07-06T07:01:24;5.78;;;3.10;;
24650;SDS011;12783;48.824;8.662;2022-07-06T07:03:51;9.70;;;3.30;;
24650;SDS011;12783;48.824;8.662;2022-07-06T07:06:18;7.30;;;3.17;;
24650;SDS011;12783;48.824;8.662;2022-07-06T07:08:45;8.43;;;4.30;;
24650;SDS011;12783;48.824;8.662;2022-07-06T07:11:12;6.78;;;3.00;;
24650;SDS011;12783;48.824;8.662;2022-07-06T07:13:39;4.45;;;3.10;;
24650;SDS011;12783;48.824;8.662;2022-07-06T07:16:06;7.30;;;3.33;;
24650;SDS011;12783;48.824;8.662;2022-07-06T07:18:33;4.53;;;3.22;;
24650;SDS011;12783;48.824;8.662;2022-07-06T07:21:00;6.72;;;3.13;;
24650;SDS011;12783;48.824;8.662;2022-07-06T07:23:27;6.15;;;3.13;;
24650;SDS011;12783;48.824;8.662;2022-07-06T07:25:54;5.60;;;3.40;;
24650;SDS011;12783;48.824;8.662;2022-07-06T07:28:20;8.63;;;3.53;;
24650;SDS011;12783;48.824;8.662;2022-07-06T07:30:48;7.40;;;2.85;;
24650;SDS011;12783;48.824;8.662;2022-07-06T07:33:15;10.77;;;3.40;;
24650;SDS011;12783;48.824;8.662;2022-07-06T07:35:41;6.20;;;3.25;;
24650;SDS011;12783;48.824;8.662;2022-07-06T07:38:08;6.43;;;2.97;;
24650;SDS011;12783;48.824;8.662;2022-07-06T07:40:35;7.50;;;3.13;;
24650;SDS011;12783;48.824;8.662;2022-07-06T07:43:02;6.13;;;3.22;;
24650;SDS011;12783;48.824;8.662;2022-07-06T07:45:29;9.55;;;3.55;;
24650;SDS011;12783;48.824;8.662;2022-07-06T07:47:55;5.60;;;2.70;;
24650;SDS011;12783;48.824;8.662;2022-07-06T07:50:22;6.13;;;3.33;;
24650;SDS011;12783;48.824;8.662;2022-07-06T07:52:49;6.75;;;3.55;;
24650;SDS011;12783;48.824;8.662;2022-07-06T07:55:16;4.65;;;3.05;;
24650;SDS011;12783;48.824;8.662;2022-07-06T07:58:03;9.52;;;3.50;;
24650;SDS011;12783;48.824;8.662;2022-07-06T08:00:30;4.75;;;3.38;;
24650;SDS011;12783;48.824;8.662;2022-07-06T08:02:57;6.93;;;3.47;;
24650;SDS011;12783;48.824;8.662;2022-07-06T08:05:26;5.78;;;2.92;;
24650;SDS011;12783;48.824;8.662;2022-07-06T08:07:52;8.35;;;3.42;;
24650;SDS011;12783;48.824;8.662;2022-07-06T08:10:19;7.43;;;3.15;;
24650;SDS011;12783;48.824;8.662;2022-07-06T08:12:47;7.53;;;3.30;;
24650;SDS011;12783;48.824;8.662;2022-07-06T08:15:14;5.38;;;3.65;;
24650;SDS011;12783;48.824;8.662;2022-07-06T08:17:41;8.57;;;3.38;;
24650;SDS011;12783;48.824;8.662;2022-07-06T08:20:08;17.85;;;3.88;;
24650;SDS011;12783;48.824;8.662;2022-07-06T08:22:35;6.93;;;3.50;;
24650;SDS011;12783;48.824;8.662;2022-07-06T08:25:03;4.88;;;3.20;;
24650;SDS011;12783;48.824;8.662;2022-07-06T08:27:31;4.35;;;3.38;;
24650;SDS011;12783;48.824;8.662;2022-07-06T08:29:59;6.97;;;3.50;;
24650;SDS011;12783;48.824;8.662;2022-07-06T08:32:26;4.50;;;3.22;;
24650;SDS011;12783;48.824;8.662;2022-07-06T08:35:13;5.88;;;3.65;;
24650;SDS011;12783;48.824;8.662;2022-07-06T08:37:40;6.05;;;3.20;;
24650;SDS011;12783;48.824;8.662;2022-07-06T08:40:07;8.07;;;3.35;;
24650;SDS011;12783;48.824;8.662;2022-07-06T08:42:35;7.10;;;3.47;;
24650;SDS011;12783;48.824;8.662;2022-07-06T08:45:03;7.55;;;3.70;;
24650;SDS011;12783;48.824;8.662;2022-07-06T08:47:34;9.70;;;3.72;;
24650;SDS011;12783;48.824;8.662;2022-07-06T08:50:04;9.52;;;3.97;;
24650;SDS011;12783;48.824;8.662;2022-07-06T08:52:32;5.18;;;3.38;;
24650;SDS011;12783;48.824;8.662;2022-07-06T08:54:59;10.38;;;3.50;;
24650;SDS011;12783;48.824;8.662;2022-07-06T08:57:28;9.10;;;4.75;;
24650;SDS011;12783;48.824;8.662;2022-07-06T08:59:55;7.10;;;3.85;;
24650;SDS011;12783;48.824;8.662;2022-07-06T09:02:23;5.75;;;3.55;;
24650;SDS011;12783;48.824;8.662;2022-07-06T09:04:55;6.32;;;3.78;;
24650;SDS011;12783;48.824;8.662;2022-07-06T09:07:25;8.68;;;4.32;;
24650;SDS011;12783;48.824;8.662;2022-07-06T09:10:14;6.85;;;3.15;;
24650;SDS011;12783;48.824;8.662;2022-07-06T09:12:44;10.80;;;4.13;;
24650;SDS011;12783;48.824;8.662;2022-07-06T09:15:12;5.97;;;4.15;;
24650;SDS011;12783;48.824;8.662;2022-07-06T09:17:39;5.53;;;3.60;;
24650;SDS011;12783;48.824;8.662;2022-07-06T09:20:09;9.88;;;4.28;;
24650;SDS011;12783;48.824;8.662;2022-07-06T09:22:38;7.57;;;4.63;;
24650;SDS011;12783;48.824;8.662;2022-07-06T09:25:07;6.72;;;4.20;;
24650;SDS011;12783;48.824;8.662;2022-07-06T09:27:38;7.13;;;4.43;;
24650;SDS011;12783;48.824;8.662;2022-07-06T09:30:14;8.55;;;5.00;;
24650;SDS011;12783;48.824;8.662;2022-07-06T09:32:46;10.02;;;4.75;;
24650;SDS011;12783;48.824;8.662;2022-07-06T09:35:19;15.07;;;5.10;;
24650;SDS011;12783;48.824;8.662;2022-07-06T09:40:44;10.23;;;4.32;;
24650;SDS011;12783;48.824;8.662;2022-07-06T09:43:16;8.23;;;4.35;;
24650;SDS011;12783;48.824;8.662;2022-07-06T09:45:49;7.65;;;4.63;;
24650;SDS011;12783;48.824;8.662;2022-07-06T09:48:19;10.93;;;4.43;;
24650;SDS011;12783;48.824;8.662;2022-07-06T09:50:52;8.20;;;4.03;;
24650;SDS011;12783;48.824;8.662;2022-07-06T09:53:21;7.38;;;4.80;;
24650;SDS011;12783;48.824;8.662;2022-07-06T09:55:53;6.97;;;4.43;;
24650;SDS011;12783;48.824;8.662;2022-07-06T09:58:22;5.90;;;3.70;;
24650;SDS011;12783;48.824;8.662;2022-07-06T10:01:10;8.65;;;4.50;;
24650;SDS011;12783;48.824;8.662;2022-07-06T10:03:37;12.82;;;4.03;;
24650;SDS011;12783;48.824;8.662;2022-07-06T10:06:05;7.72;;;4.45;;
24650;SDS011;12783;48.824;8.662;2022-07-06T10:08:33;6.47;;;4.18;;
24650;SDS011;12783;48.824;8.662;2022-07-06T10:11:02;8.23;;;3.55;;
24650;SDS011;12783;48.824;8.662;2022-07-06T10:13:29;10.00;;;3.92;;
24650;SDS011;12783;48.824;8.662;2022-07-06T10:15:58;12.55;;;4.30;;
24650;SDS011;12783;48.824;8.662;2022-07-06T10:18:26;8.55;;;4.05;;
24650;SDS011;12783;48.824;8.662;2022-07-06T10:20:54;8.80;;;3.90;;
24650;SDS011;12783;48.824;8.662;2022-07-06T10:23:21;7.00;;;3.88;;
24650;SDS011;12783;48.824;8.662;2022-07-06T10:25:49;6.40;;;4.10;;
24650;SDS011;12783;48.824;8.662;2022-07-06T10:28:17;11.15;;;4.50;;
24650;SDS011;12783;48.824;8.662;2022-07-06T10:30:45;5.45;;;3.30;;
24650;SDS011;12783;48.824;8.662;2022-07-06T10:33:14;7.55;;;3.95;;
24650;SDS011;12783;48.824;8.662;2022-07-06T10:35:43;8.88;;;3.80;;
24650;SDS011;12783;48.824;8.662;2022-07-06T10:38:11;11.30;;;4.32;;
24650;SDS011;12783;48.824;8.662;2022-07-06T10:40:39;9.82;;;4.43;;
24650;SDS011;12783;48.824;8.662;2022-07-06T10:46:12;9.18;;;4.00;;
24650;SDS011;12783;48.824;8.662;2022-07-06T10:48:45;14.57;;;4.50;;
24650;SDS011;12783;48.824;8.662;2022-07-06T10:51:23;11.88;;;4.90;;
24650;SDS011;12783;48.824;8.662;2022-07-06T10:53:56;10.93;;;4.60;;
24650;SDS011;12783;48.824;8.662;2022-07-06T10:56:37;9.25;;;4.50;;
24650;SDS011;12783;48.824;8.662;2022-07-06T10:59:17;10.82;;;3.90;;
24650;SDS011;12783;48.824;8.662;2022-07-06T11:02:21;10.05;;;3.92;;
24650;SDS011;12783;48.824;8.662;2022-07-06T11:04:41;10.65;;;4.25;;
24650;SDS011;12783;48.824;8.662;2022-07-06T11:07:14;14.25;;;4.03;;
24650;SDS011;12783;48.824;8.662;2022-07-06T11:09:56;15.35;;;3.60;;
24650;SDS011;12783;48.824;8.662;2022-07-06T11:12:25;18.20;;;3.92;;
24650;SDS011;12783;48.824;8.662;2022-07-06T11:14:53;10.93;;;3.50;;
24650;SDS011;12783;48.824;8.662;2022-07-06T11:17:20;8.40;;;3.55;;
24650;SDS011;12783;48.824;8.662;2022-07-06T11:19:47;16.83;;;3.72;;
24650;SDS011;12783;48.824;8.662;2022-07-06T11:22:35;8.88;;;3.75;;
24650;SDS011;12783;48.824;8.662;2022-07-06T11:25:04;10.23;;;4.03;;
24650;SDS011;12783;48.824;8.662;2022-07-06T11:27:33;6.63;;;3.72;;
24650;SDS011;12783;48.824;8.662;2022-07-06T11:30:01;8.90;;;3.60;;
24650;SDS011;12783;48.824;8.662;2022-07-06T11:32:28;19.45;;;3.53;;
24650;SDS011;12783;48.824;8.662;2022-07-06T11:34:58;6.05;;;3.10;;
24650;SDS011;12783;48.824;8.662;2022-07-06T11:37:30;8.75;;;3.40;;
24650;SDS011;12783;48.824;8.662;2022-07-06T11:39:57;6.65;;;3.10;;
24650;SDS011;12783;48.824;8.662;2022-07-06T11:42:33;6.40;;;4.10;;
24650;SDS011;12783;48.824;8.662;2022-07-06T11:45:02;3.92;;;3.13;;
24650;SDS011;12783;48.824;8.662;2022-07-06T11:47:32;11.85;;;3.20;;
24650;SDS011;12783;48.824;8.662;2022-07-06T11:50:00;13.55;;;3.40;;
24650;SDS011;12783;48.824;8.662;2022-07-06T11:52:27;14.32;;;3.40;;
24650;SDS011;12783;48.824;8.662;2022-07-06T11:54:59;8.45;;;3.45;;
24650;SDS011;12783;48.824;8.662;2022-07-06T11:57:26;8.82;;;3.80;;
24650;SDS011;12783;48.824;8.662;2022-07-06T11:59:58;9.27;;;2.83;;
24650;SDS011;12783;48.824;8.662;2022-07-06T12:02:25;6.22;;;2.50;;
24650;SDS011;12783;48.824;8.662;2022-07-06T12:04:51;7.20;;;3.00;;
24650;SDS011;12783;48.824;8.662;2022-07-06T12:07:18;9.15;;;3.00;;
24650;SDS011;12783;48.824;8.662;2022-07-06T12:09:46;12.13;;;2.70;;
24650;SDS011;12783;48.824;8.662;2022-07-06T12:12:13;10.27;;;2.85;;
24650;SDS011;12783;48.824;8.662;2022-07-06T12:14:42;12.85;;;3.08;;
24650;SDS011;12783;48.824;8.662;2022-07-06T12:17:12;5.28;;;2.63;;
24650;SDS011;12783;48.824;8.662;2022-07-06T12:19:40;6.70;;;2.80;;
24650;SDS011;12783;48.824;8.662;2022-07-06T12:22:08;4.95;;;2.60;;
24650;SDS011;12783;48.824;8.662;2022-07-06T12:24:36;9.30;;;2.97;;
24650;SDS011;12783;48.824;8.662;2022-07-06T12:27:11;8.27;;;2.88;;
24650;SDS011;12783;48.824;8.662;2022-07-06T12:29:43;7.25;;;2.50;;
24650;SDS011;12783;48.824;8.662;2022-07-06T12:32:18;7.82;;;2.75;;
24650;SDS011;12783;48.824;8.662;2022-07-06T12:35:08;7.28;;;2.58;;
24650;SDS011;12783;48.824;8.662;2022-07-06T12:37:37;4.82;;;2.40;;
24650;SDS011;12783;48.824;8.662;2022-07-06T12:40:11;7.68;;;2.63;;
24650;SDS011;12783;48.824;8.662;2022-07-06T12:42:49;7.22;;;2.40;;
24650;SDS011;12783;48.824;8.662;2022-07-06T12:45:16;5.20;;;2.50;;
24650;SDS011;12783;48.824;8.662;2022-07-06T12:47:56;7.28;;;2.17;;
24650;SDS011;12783;48.824;8.662;2022-07-06T12:50:32;4.22;;;2.20;;
24650;SDS011;12783;48.824;8.662;2022-07-06T12:53:05;7.70;;;2.53;;
24650;SDS011;12783;48.824;8.662;2022-07-06T12:56:07;7.38;;;2.60;;
24650;SDS011;12783;48.824;8.662;2022-07-06T12:58:35;4.13;;;2.40;;
24650;SDS011;12783;48.824;8.662;2022-07-06T13:01:02;4.68;;;2.38;;
24650;SDS011;12783;48.824;8.662;2022-07-06T13:03:39;5.93;;;2.38;;
24650;SDS011;12783;48.824;8.662;2022-07-06T13:06:07;6.28;;;2.38;;
24650;SDS011;12783;48.824;8.662;2022-07-06T13:08:35;6.13;;;2.20;;
24650;SDS011;12783;48.824;8.662;2022-07-06T13:11:02;17.27;;;2.67;;
24650;SDS011;12783;48.824;8.662;2022-07-06T13:13:30;11.30;;;2.63;;
24650;SDS011;12783;48.824;8.662;2022-07-06T13:15:57;11.45;;;2.35;;
24650;SDS011;12783;48.824;8.662;2022-07-06T13:18:24;3.03;;;1.90;;
24650;SDS011;12783;48.824;8.662;2022-07-06T13:20:51;5.40;;;2.75;;
24650;SDS011;12783;48.824;8.662;2022-07-06T13:23:17;21.30;;;2.58;;
24650;SDS011;12783;48.824;8.662;2022-07-06T13:25:44;12.18;;;2.33;;
24650;SDS011;12783;48.824;8.662;2022-07-06T13:28:11;9.95;;;2.58;;
24650;SDS011;12783;48.824;8.662;2022-07-06T13:30:38;5.03;;;1.83;;
24650;SDS011;12783;48.824;8.662;2022-07-06T13:33:05;5.55;;;2.00;;
24650;SDS011;12783;48.824;8.662;2022-07-06T13:35:32;2.90;;;2.10;;
24650;SDS011;12783;48.824;8.662;2022-07-06T13:37:59;4.93;;;1.85;;
24650;SDS011;12783;48.824;8.662;2022-07-06T13:40:26;4.32;;;1.98;;
24650;SDS011;12783;48.824;8.662;2022-07-06T13:42:53;5.32;;;2.28;;
24650;SDS011;12783;48.824;8.662;2022-07-06T13:45:20;7.80;;;2.08;;
24650;SDS011;12783;48.824;8.662;2022-07-06T13:47:47;3.70;;;1.90;;
24650;SDS011;12783;48.824;8.662;2022-07-06T13:50:14;6.43;;;1.80;;
24650;SDS011;12783;48.824;8.662;2022-07-06T13:52:41;7.55;;;2.20;;
24650;SDS011;12783;48.824;8.662;2022-07-06T13:55:08;8.55;;;2.42;;
24650;SDS011;12783;48.824;8.662;2022-07-06T13:57:36;2.85;;;1.60;;
24650;SDS011;12783;48.824;8.662;2022-07-06T14:00:04;3.22;;;1.70;;
24650;SDS011;12783;48.824;8.662;2022-07-06T14:02:32;3.75;;;1.88;;
24650;SDS011;12783;48.824;8.662;2022-07-06T14:04:59;7.47;;;2.00;;
24650;SDS011;12783;48.824;8.662;2022-07-06T14:07:25;6.78;;;1.67;;
24650;SDS011;12783;48.824;8.662;2022-07-06T14:09:53;6.35;;;1.90;;
24650;SDS011;12783;48.824;8.662;2022-07-06T14:12:20;2.92;;;1.80;;
24650;SDS011;12783;48.824;8.662;2022-07-06T14:14:49;3.47;;;1.70;;
24650;SDS011;12783;48.824;8.662;2022-07-06T14:17:16;4.97;;;1.88;;
24650;SDS011;12783;48.824;8.662;2022-07-06T14:19:44;5.40;;;1.83;;
24650;SDS011;12783;48.824;8.662;2022-07-06T14:22:11;6.35;;;2.22;;
24650;SDS011;12783;48.824;8.662;2022-07-06T14:24:38;3.00;;;2.00;;
24650;SDS011;12783;48.824;8.662;2022-07-06T14:27:05;5.35;;;1.80;;
24650;SDS011;12783;48.824;8.662;2022-07-06T14:29:32;7.00;;;1.60;;
24650;SDS011;12783;48.824;8.662;2022-07-06T14:31:59;5.95;;;1.88;;
24650;SDS011;12783;48.824;8.662;2022-07-06T14:34:26;3.63;;;1.80;;
24650;SDS011;12783;48.824;8.662;2022-07-06T14:36:53;4.47;;;1.77;;
24650;SDS011;12783;48.824;8.662;2022-07-06T14:39:19;7.57;;;1.70;;
24650;SDS011;12783;48.824;8.662;2022-07-06T14:41:46;4.47;;;1.40;;
24650;SDS011;12783;48.824;8.662;2022-07-06T14:44:13;2.25;;;1.30;;
24650;SDS011;12783;48.824;8.662;2022-07-06T14:46:40;4.22;;;1.30;;
24650;SDS011;12783;48.824;8.662;2022-07-06T14:49:07;3.53;;;1.33;;
24650;SDS011;12783;48.824;8.662;2022-07-06T14:51:34;4.13;;;1.30;;
24650;SDS011;12783;48.824;8.662;2022-07-06T14:54:01;3.00;;;1.67;;
24650;SDS011;12783;48.824;8.662;2022-07-06T14:56:29;12.40;;;1.40;;
24650;SDS011;12783;48.824;8.662;2022-07-06T14:58:56;6.60;;;1.52;;
24650;SDS011;12783;48.824;8.662;2022-07-06T15:01:43;2.15;;;1.30;;